Time;durP1;ratioP1;P1;durP2;ratioP2;P2;SDS_P1;SDS_P2;PMS_P1;PMS_P2;Temp;Humidity;BMP_temperature;BMP_pressure;BME280_temperature;BME280_humidity;BME280_pressure;Samples;Min_cycle;Max_cycle;Signal;HPM_P1;HPM_P2
2021/06/05 00:02:24;;;;;;;8.07;3.92;;;;;;;;;;10279010;28;20084;-56
2021/06/05 00:07:23;;;;;;;6.07;4.00;;;;;;;;;;10278459;28;20394;-56
2021/06/05 00:12:23;;;;;;;10.10;3.55;;;;;;;;;;10278012;28;20049;-56
2021/06/05 00:17:21;;;;;;;5.18;3.65;;;;;;;;;;10277780;28;20441;-56
2021/06/05 00:22:20;;;;;;;9.27;3.90;;;;;;;;;;10278320;28;20045;-56
2021/06/05 00:27:18;;;;;;;8.38;3.90;;;;;;;;;;10278130;28;20037;-55
2021/06/05 00:32:17;;;;;;;6.75;3.60;;;;;;;;;;10277006;28;20052;-57
2021/06/05 00:37:15;;;;;;;9.23;4.95;;;;;;;;;;10277640;28;20049;-56
2021/06/05 00:42:13;;;;;;;9.23;4.05;;;;;;;;;;10277505;28;20074;-55
2021/06/05 00:47:11;;;;;;;8.32;3.92;;;;;;;;;;10276672;28;20083;-57
2021/06/05 00:52:11;;;;;;;7.05;3.85;;;;;;;;;;10276979;28;20041;-56
2021/06/05 00:57:09;;;;;;;6.57;4.22;;;;;;;;;;10275676;28;20053;-55
2021/06/05 01:02:09;;;;;;;8.40;4.00;;;;;;;;;;10275344;28;20045;-56
2021/06/05 01:07:10;;;;;;;9.88;4.20;;;;;;;;;;10275244;28;20045;-56
2021/06/05 01:12:11;;;;;;;5.57;4.32;;;;;;;;;;10275136;28;20049;-56
2021/06/05 01:17:16;;;;;;;6.55;4.55;;;;;;;;;;10272931;28;20087;-57
2021/06/05 01:22:20;;;;;;;6.63;4.40;;;;;;;;;;10274407;28;20045;-58
2021/06/05 01:27:22;;;;;;;6.27;4.00;;;;;;;;;;10274782;28;20060;-58
2021/06/05 01:32:22;;;;;;;9.32;4.22;;;;;;;;;;10274901;28;20053;-57
2021/06/05 01:37:20;;;;;;;11.25;4.25;;;;;;;;;;10275871;28;20053;-57
2021/06/05 01:42:28;;;;;;;8.07;4.18;;;;;;;;;;10275555;28;20147;-58
2021/06/05 01:47:29;;;;;;;8.80;3.83;;;;;;;;;;10274393;28;20396;-57
2021/06/05 01:52:30;;;;;;;10.85;4.00;;;;;;;;;;10274275;28;20047;-57
2021/06/05 01:57:34;;;;;;;12.10;5.03;;;;;;;;;;10275333;28;20140;-57
2021/06/05 02:02:46;;;;;;;5.28;4.18;;;;;;;;;;10273904;28;20057;-55
2021/06/05 02:07:46;;;;;;;8.30;4.65;;;;;;;;;;10273388;28;20079;-57
2021/06/05 02:12:49;;;;;;;9.23;4.80;;;;;;;;;;10274985;28;20052;-55
2021/06/05 02:18:04;;;;;;;7.25;5.43;;;;;;;;;;10273273;28;20518;-58
2021/06/05 02:23:06;;;;;;;8.82;4.78;;;;;;;;;;10273174;28;20061;-56
2021/06/05 02:28:06;;;;;;;7.75;4.47;;;;;;;;;;10276784;28;20056;-59
2021/06/05 02:33:05;;;;;;;10.57;4.32;;;;;;;;;;10282368;28;20082;-56
2021/06/05 02:38:10;;;;;;;11.23;4.57;;;;;;;;;;10280629;28;20100;-55
2021/06/05 02:43:15;;;;;;;7.20;4.85;;;;;;;;;;10282128;28;20418;-55
2021/06/05 02:48:15;;;;;;;7.85;4.75;;;;;;;;;;10282130;28;20085;-56
2021/06/05 02:53:15;;;;;;;8.57;4.30;;;;;;;;;;10279974;28;20049;-56
2021/06/05 02:58:16;;;;;;;5.60;4.45;;;;;;;;;;10280123;28;20072;-56
2021/06/05 03:03:18;;;;;;;8.43;4.45;;;;;;;;;;10281469;28;20045;-57
2021/06/05 03:08:18;;;;;;;4.30;3.92;;;;;;;;;;10279535;28;20056;-57
2021/06/05 03:13:18;;;;;;;10.98;4.35;;;;;;;;;;10281057;28;20053;-55
2021/06/05 03:18:18;;;;;;;4.82;4.35;;;;;;;;;;10279610;28;20529;-53
2021/06/05 03:23:18;;;;;;;5.05;3.78;;;;;;;;;;10280821;28;20486;-53
2021/06/05 03:28:19;;;;;;;6.20;3.83;;;;;;;;;;10279043;28;20040;-53
2021/06/05 03:33:17;;;;;;;8.73;3.97;;;;;;;;;;10278418;28;20414;-56
2021/06/05 03:38:16;;;;;;;12.32;5.25;;;;;;;;;;10277570;28;20049;-55
2021/06/05 03:43:15;;;;;;;7.03;3.60;;;;;;;;;;10277515;28;20045;-55
2021/06/05 03:48:18;;;;;;;4.88;3.70;;;;;;;;;;10278204;28;20453;-54
2021/06/05 03:53:17;;;;;;;5.03;3.65;;;;;;;;;;10277680;28;20045;-57
2021/06/05 03:58:15;;;;;;;10.70;4.60;;;;;;;;;;10279777;28;20045;-56
2021/06/05 04:03:14;;;;;;;9.50;3.67;;;;;;;;;;10279489;28;20489;-56
2021/06/05 04:08:13;;;;;;;8.68;4.78;;;;;;;;;;10278125;28;20053;-56
2021/06/05 04:13:11;;;;;;;5.32;3.50;;;;;;;;;;10277401;28;20437;-57
2021/06/05 04:18:11;;;;;;;14.18;4.32;;;;;;;;;;10279717;28;20118;-56
2021/06/05 04:23:13;;;;;;;6.00;3.78;;;;;;;;;;10277936;28;20041;-55
2021/06/05 04:28:12;;;;;;;5.40;3.83;;;;;;;;;;10277879;28;20079;-54
2021/06/05 04:33:11;;;;;;;6.60;4.05;;;;;;;;;;10277178;28;20049;-55
2021/06/05 04:38:09;;;;;;;7.22;4.15;;;;;;;;;;10277667;28;20076;-53
2021/06/05 04:43:08;;;;;;;5.85;5.07;;;;;;;;;;10278063;28;20049;-55
2021/06/05 04:48:07;;;;;;;13.70;7.43;;;;;;;;;;10278047;28;20080;-54
2021/06/05 04:53:05;;;;;;;19.58;13.82;;;;;;;;;;10277485;28;20049;-57
2021/06/05 04:58:03;;;;;;;11.88;4.88;;;;;;;;;;10277195;28;20078;-54
2021/06/05 05:03:05;;;;;;;8.60;3.85;;;;;;;;;;10277168;28;20064;-55
2021/06/05 05:08:03;;;;;;;4.18;3.75;;;;;;;;;;10277378;28;20057;-55
2021/06/05 05:13:02;;;;;;;4.40;3.97;;;;;;;;;;10276974;28;20049;-52
2021/06/05 05:18:00;;;;;;;7.28;3.45;;;;;;;;;;10276541;28;20442;-52
2021/06/05 05:22:59;;;;;;;6.30;3.72;;;;;;;;;;10276418;28;20076;-52
2021/06/05 05:27:58;;;;;;;5.22;4.05;;;;;;;;;;10276592;28;20045;-48
2021/06/05 05:32:56;;;;;;;7.82;3.85;;;;;;;;;;10276388;28;20068;-54
2021/06/05 05:37:55;;;;;;;11.80;5.05;;;;;;;;;;10275712;28;20084;-54
2021/06/05 05:42:54;;;;;;;9.65;5.55;;;;;;;;;;10275451;28;20069;-55
2021/06/05 05:47:55;;;;;;;5.63;4.70;;;;;;;;;;10275970;28;20517;-53
2021/06/05 05:52:53;;;;;;;7.60;3.75;;;;;;;;;;10284973;28;20075;-47
2021/06/05 05:57:52;;;;;;;9.63;4.07;;;;;;;;;;10294422;28;20090;-54
2021/06/05 06:02:51;;;;;;;9.85;4.65;;;;;;;;;;10295154;28;20080;-55
2021/06/05 06:07:49;;;;;;;6.78;4.30;;;;;;;;;;10284071;28;20045;-55
2021/06/05 06:12:47;;;;;;;9.52;6.13;;;;;;;;;;10291886;28;20068;-56
2021/06/05 06:17:46;;;;;;;8.63;4.70;;;;;;;;;;10298020;28;20082;-49
2021/06/05 06:22:45;;;;;;;5.68;4.28;;;;;;;;;;10290783;28;20489;-54
2021/06/05 06:27:43;;;;;;;8.27;4.47;;;;;;;;;;10307964;28;20143;-55
2021/06/05 06:32:40;;;;;;;5.85;4.15;;;;;;;;;;10317666;28;20135;-54
2021/06/05 06:37:38;;;;;;;6.25;4.30;;;;;;;;;;10315941;28;20383;-54
2021/06/05 06:42:37;;;;;;;8.05;3.95;;;;;;;;;;10321025;28;20083;-55
2021/06/05 06:47:35;;;;;;;4.40;4.00;;;;;;;;;;10320361;28;20036;-54
2021/06/05 06:52:33;;;;;;;7.43;4.68;;;;;;;;;;10320688;28;20041;-54
2021/06/05 06:57:31;;;;;;;6.78;4.78;;;;;;;;;;10320979;28;20079;-55
2021/06/05 07:02:30;;;;;;;14.65;9.23;;;;;;;;;;10320890;28;20063;-53
2021/06/05 07:07:29;;;;;;;13.05;11.65;;;;;;;;;;10320241;28;20079;-51
2021/06/05 07:12:27;;;;;;;10.05;9.05;;;;;;;;;;10319264;28;20044;-56
2021/06/05 07:17:25;;;;;;;7.50;6.30;;;;;;;;;;10319231;28;20587;-57
2021/06/05 07:22:24;;;;;;;12.35;5.68;;;;;;;;;;10319846;28;20044;-54
2021/06/05 07:27:22;;;;;;;9.95;6.78;;;;;;;;;;10318445;28;20052;-53
2021/06/05 07:32:19;;;;;;;8.35;5.88;;;;;;;;;;10319477;28;20076;-54
2021/06/05 07:37:20;;;;;;;8.60;4.90;;;;;;;;;;10319385;28;20068;-52
2021/06/05 07:42:19;;;;;;;8.60;4.43;;;;;;;;;;10318658;28;20041;-54
2021/06/05 07:47:17;;;;;;;8.88;5.55;;;;;;;;;;10317958;28;20047;-56
2021/06/05 07:52:23;;;;;;;6.75;6.07;;;;;;;;;;10318793;28;20052;-54
2021/06/05 07:57:22;;;;;;;5.90;5.30;;;;;;;;;;10318895;28;20080;-56
2021/06/05 08:02:20;;;;;;;6.03;4.22;;;;;;;;;;10318884;28;20481;-54
2021/06/05 08:07:19;;;;;;;8.23;4.63;;;;;;;;;;10318338;28;20048;-55
2021/06/05 08:12:16;;;;;;;6.03;4.47;;;;;;;;;;10318232;28;20068;-54
2021/06/05 08:17:16;;;;;;;3.90;3.47;;;;;;;;;;10317849;28;20095;-56
2021/06/05 08:22:14;;;;;;;4.97;4.22;;;;;;;;;;10317795;28;20076;-56
2021/06/05 08:27:12;;;;;;;10.95;5.43;;;;;;;;;;10317027;28;20064;-56
2021/06/05 08:32:10;;;;;;;7.47;4.72;;;;;;;;;;10317482;28;20040;-55
2021/06/05 08:37:09;;;;;;;12.20;4.13;;;;;;;;;;10317019;28;20083;-55
2021/06/05 08:42:10;;;;;;;6.35;4.60;;;;;;;;;;10316958;28;20037;-55
2021/06/05 08:47:10;;;;;;;11.10;5.10;;;;;;;;;;10317158;28;20044;-57
2021/06/05 08:52:10;;;;;;;5.20;4.47;;;;;;;;;;10316723;28;20052;-57
2021/06/05 08:57:10;;;;;;;10.00;3.97;;;;;;;;;;10316394;28;20498;-54
2021/06/05 09:02:08;;;;;;;11.00;4.57;;;;;;;;;;10316307;28;20036;-55
2021/06/05 09:07:08;;;;;;;4.35;3.60;;;;;;;;;;10316373;28;20056;-54
2021/06/05 09:12:08;;;;;;;7.45;3.58;;;;;;;;;;10315962;28;20044;-54
2021/06/05 09:17:13;;;;;;;6.03;3.38;;;;;;;;;;10316038;28;20099;-55
2021/06/05 09:22:17;;;;;;;4.63;4.13;;;;;;;;;;10315758;28;20375;-53
2021/06/05 09:27:22;;;;;;;6.72;3.08;;;;;;;;;;10315309;28;20080;-53
2021/06/05 09:32:21;;;;;;;7.82;3.35;;;;;;;;;;10315215;28;20061;-55
2021/06/05 09:37:26;;;;;;;7.57;3.75;;;;;;;;;;10314920;28;20080;-54
2021/06/05 09:42:29;;;;;;;7.47;3.38;;;;;;;;;;10315319;28;20059;-54
2021/06/05 09:47:29;;;;;;;8.70;3.45;;;;;;;;;;10315553;28;20052;-55
2021/06/05 09:52:29;;;;;;;3.53;2.88;;;;;;;;;;10314586;28;20417;-56
2021/06/05 09:57:37;;;;;;;9.65;3.30;;;;;;;;;;10313994;28;20083;-54
2021/06/05 10:02:35;;;;;;;4.97;3.05;;;;;;;;;;10315333;28;20076;-52
2021/06/05 10:07:33;;;;;;;4.45;2.80;;;;;;;;;;10314649;28;20451;-54
2021/06/05 10:12:36;;;;;;;9.02;2.95;;;;;;;;;;10314062;28;20044;-53
2021/06/05 10:17:38;;;;;;;6.68;3.25;;;;;;;;;;10314165;28;20080;-53
2021/06/05 10:22:36;;;;;;;3.05;2.83;;;;;;;;;;10314577;28;20052;-54
2021/06/05 10:27:36;;;;;;;5.88;2.83;;;;;;;;;;10314206;28;20486;-54
2021/06/05 10:32:38;;;;;;;5.43;3.88;;;;;;;;;;10314224;28;20040;-55
2021/06/05 10:37:37;;;;;;;3.05;2.70;;;;;;;;;;10314301;28;20485;-57
2021/06/05 10:42:39;;;;;;;7.10;2.80;;;;;;;;;;10313945;28;20047;-56
2021/06/05 10:47:42;;;;;;;5.70;3.92;;;;;;;;;;10314490;28;20044;-55
2021/06/05 10:52:42;;;;;;;7.57;3.03;;;;;;;;;;10321405;28;20075;-55
2021/06/05 10:57:43;;;;;;;2.95;2.65;;;;;;;;;;10320830;28;20083;-55
2021/06/05 11:02:44;;;;;;;4.15;2.90;;;;;;;;;;10321057;28;20048;-57
2021/06/05 11:07:42;;;;;;;4.50;2.72;;;;;;;;;;10321254;28;20072;-54
2021/06/05 11:12:46;;;;;;;4.28;2.60;;;;;;;;;;10320180;28;20036;-55
2021/06/05 11:17:44;;;;;;;;;;;;;;;;;;10320944;28;20091;-54
2021/06/05 11:23:00;;;;;;;6.43;2.70;;;;;;;;;;10320221;28;19920;-56
2021/06/05 11:28:19;;;;;;;2.42;2.17;;;;;;;;;;10319854;28;20052;-56
2021/06/05 11:33:31;;;;;;;3.92;2.63;;;;;;;;;;10319812;28;20071;-56
2021/06/05 11:38:46;;;;;;;4.03;2.88;;;;;;;;;;10319588;28;20091;-53
2021/06/05 11:43:49;;;;;;;4.35;3.40;;;;;;;;;;10319565;28;20100;-52
2021/06/05 11:48:53;;;;;;;3.97;2.47;;;;;;;;;;10318932;28;20063;-54
2021/06/05 11:53:51;;;;;;;;;;;;;;;;;;10319693;28;20076;-57
2021/06/05 11:58:50;;;;;;;3.22;2.17;;;;;;;;;;10318273;28;19963;-56
2021/06/05 12:03:51;;;;;;;3.97;3.22;;;;;;;;;;10318764;28;20090;-55
2021/06/05 12:08:59;;;;;;;8.50;2.85;;;;;;;;;;10318621;28;20043;-56
2021/06/05 12:14:05;;;;;;;6.75;3.53;;;;;;;;;;10318330;28;20083;-54
2021/06/05 12:19:07;;;;;;;5.03;2.95;;;;;;;;;;10317706;28;20084;-56
2021/06/05 12:24:14;;;;;;;6.75;6.05;;;;;;;;;;10317943;28;20060;-55
2021/06/05 12:29:15;;;;;;;6.85;6.05;;;;;;;;;;10316916;28;20036;-53
2021/06/05 12:34:15;;;;;;;8.23;3.05;;;;;;;;;;10317891;28;20087;-52
2021/06/05 12:39:15;;;;;;;4.63;3.63;;;;;;;;;;10317435;28;20454;-54
2021/06/05 12:44:16;;;;;;;4.38;3.53;;;;;;;;;;10316297;28;20043;-55
2021/06/05 12:49:21;;;;;;;5.50;2.85;;;;;;;;;;10316767;28;20048;-53
2021/06/05 12:54:30;;;;;;;3.28;2.70;;;;;;;;;;10316994;28;20068;-55
2021/06/05 12:59:33;;;;;;;7.18;2.60;;;;;;;;;;10316877;28;20107;-52
2021/06/05 13:04:32;;;;;;;3.30;2.67;;;;;;;;;;10316545;28;20044;-53
2021/06/05 13:09:33;;;;;;;8.27;3.15;;;;;;;;;;10316779;28;20083;-56
2021/06/05 13:14:34;;;;;;;2.97;2.67;;;;;;;;;;10315806;28;20168;-56
2021/06/05 13:19:32;;;;;;;4.80;3.00;;;;;;;;;;10316030;28;20084;-55
2021/06/05 13:24:30;;;;;;;9.45;4.50;;;;;;;;;;10316199;28;20049;-55
2021/06/05 13:29:34;;;;;;;5.55;3.30;;;;;;;;;;10315971;28;20053;-55
2021/06/05 13:34:35;;;;;;;9.23;2.45;;;;;;;;;;10315764;28;20084;-54
2021/06/05 13:39:33;;;;;;;2.97;2.30;;;;;;;;;;10315721;28;20497;-55
2021/06/05 13:44:31;;;;;;;7.18;3.50;;;;;;;;;;10315678;28;20095;-55
2021/06/05 13:49:30;;;;;;;11.95;3.33;;;;;;;;;;10315650;28;20509;-54
2021/06/05 13:54:28;;;;;;;5.13;2.50;;;;;;;;;;10315343;28;20106;-55
2021/06/05 13:59:26;;;;;;;5.30;3.03;;;;;;;;;;10315045;28;20083;-56
2021/06/05 14:04:23;;;;;;;3.80;3.03;;;;;;;;;;10315185;28;20032;-54
2021/06/05 14:09:23;;;;;;;7.68;3.47;;;;;;;;;;10315140;28;20048;-55
2021/06/05 14:14:21;;;;;;;6.97;3.15;;;;;;;;;;10314728;28;20045;-54
2021/06/05 14:19:19;;;;;;;5.45;2.63;;;;;;;;;;10314944;28;20083;-56
2021/06/05 14:24:17;;;;;;;4.25;3.60;;;;;;;;;;10318873;28;20079;-55
2021/06/05 14:29:16;;;;;;;6.43;4.60;;;;;;;;;;10322857;28;20048;-55
2021/06/05 14:34:14;;;;;;;4.72;2.90;;;;;;;;;;10322124;28;20041;-54
2021/06/05 14:39:12;;;;;;;5.50;3.08;;;;;;;;;;10321991;28;20080;-55
2021/06/05 14:44:10;;;;;;;6.30;3.58;;;;;;;;;;10321700;28;20083;-54
2021/06/05 14:49:09;;;;;;;3.83;3.15;;;;;;;;;;10320437;28;20072;-56
2021/06/05 14:54:08;;;;;;;5.53;3.15;;;;;;;;;;10321193;28;20474;-55
2021/06/05 14:59:05;;;;;;;6.47;5.00;;;;;;;;;;10320010;28;20075;-56
2021/06/05 15:04:04;;;;;;;3.40;2.80;;;;;;;;;;10321150;28;20076;-52
2021/06/05 15:09:05;;;;;;;9.05;4.05;;;;;;;;;;10321429;28;20384;-53
2021/06/05 15:14:03;;;;;;;14.20;8.32;;;;;;;;;;10319558;28;20072;-55
2021/06/05 15:19:01;;;;;;;5.40;3.47;;;;;;;;;;10320647;28;20076;-54
2021/06/05 15:23:59;;;;;;;10.13;4.95;;;;;;;;;;10320456;28;20064;-55
2021/06/05 15:28:58;;;;;;;5.22;3.92;;;;;;;;;;10320305;28;20080;-56
2021/06/05 15:33:56;;;;;;;8.05;5.07;;;;;;;;;;10319076;28;20037;-55
2021/06/05 15:38:54;;;;;;;4.60;3.47;;;;;;;;;;10320063;28;20083;-56
2021/06/05 15:43:52;;;;;;;8.35;4.75;;;;;;;;;;10319833;28;20055;-58
2021/06/05 15:48:54;;;;;;;4.68;2.47;;;;;;;;;;10319305;28;20063;-58
2021/06/05 15:53:53;;;;;;;12.68;5.90;;;;;;;;;;10317978;28;20090;-58
2021/06/05 15:58:52;;;;;;;7.80;3.60;;;;;;;;;;10283360;28;20075;-56
2021/06/05 16:03:50;;;;;;;6.28;3.30;;;;;;;;;;10275549;28;20076;-55
2021/06/05 16:08:52;;;;;;;6.15;3.88;;;;;;;;;;10273690;28;20505;-55
2021/06/05 16:13:49;;;;;;;15.40;6.53;;;;;;;;;;10270601;28;20076;-56
2021/06/05 16:18:47;;;;;;;4.80;2.67;;;;;;;;;;10271583;28;20537;-54
2021/06/05 16:23:45;;;;;;;3.00;2.55;;;;;;;;;;10274255;28;20511;-58
2021/06/05 16:28:46;;;;;;;9.68;6.10;;;;;;;;;;10277204;28;20054;-57
2021/06/05 16:33:43;;;;;;;14.27;6.07;;;;;;;;;;10276998;28;20041;-56
2021/06/05 16:38:41;;;;;;;7.43;3.42;;;;;;;;;;10275614;28;20562;-55
2021/06/05 16:43:41;;;;;;;6.20;3.17;;;;;;;;;;10276395;28;20068;-56
2021/06/05 16:48:40;;;;;;;12.45;6.70;;;;;;;;;;10276003;28;20049;-53
2021/06/05 16:53:39;;;;;;;11.65;8.57;;;;;;;;;;10275379;28;20083;-55
2021/06/05 16:58:37;;;;;;;6.85;4.43;;;;;;;;;;10276018;28;20072;-55
2021/06/05 17:03:35;;;;;;;14.13;9.65;;;;;;;;;;10275918;28;20044;-55
2021/06/05 17:08:34;;;;;;;9.77;6.63;;;;;;;;;;10275909;28;20036;-57
2021/06/05 17:13:33;;;;;;;9.02;7.53;;;;;;;;;;10275561;28;20517;-56
2021/06/05 17:18:31;;;;;;;13.13;8.23;;;;;;;;;;10275570;28;20084;-55
2021/06/05 17:23:31;;;;;;;20.92;16.40;;;;;;;;;;10275054;28;20072;-57
2021/06/05 17:28:30;;;;;;;16.35;14.18;;;;;;;;;;10272607;28;20045;-57
2021/06/05 17:33:29;;;;;;;21.83;13.75;;;;;;;;;;10274732;28;20092;-56
2021/06/05 17:38:29;;;;;;;21.52;17.38;;;;;;;;;;10273938;28;20072;-58
2021/06/05 17:43:28;;;;;;;32.35;26.08;;;;;;;;;;10274750;28;20125;-57
2021/06/05 17:48:29;;;;;;;35.85;22.00;;;;;;;;;;10272528;28;20075;-56
2021/06/05 17:53:27;;;;;;;41.17;20.52;;;;;;;;;;10274494;28;20092;-56
2021/06/05 17:58:28;;;;;;;20.98;11.10;;;;;;;;;;10277467;28;20073;-55
2021/06/05 18:03:35;;;;;;;7.25;4.25;;;;;;;;;;10282945;28;20044;-54
2021/06/05 18:08:33;;;;;;;8.57;3.42;;;;;;;;;;10282752;28;20538;-54
2021/06/05 18:13:32;;;;;;;14.98;3.65;;;;;;;;;;10282841;28;20049;-54
2021/06/05 18:18:31;;;;;;;5.03;3.00;;;;;;;;;;10282683;28;20081;-52
2021/06/05 18:23:30;;;;;;;10.43;4.00;;;;;;;;;;10282341;28;20068;-54
2021/06/05 18:28:28;;;;;;;7.93;2.83;;;;;;;;;;10282040;28;20080;-55
2021/06/05 18:33:27;;;;;;;7.95;3.60;;;;;;;;;;10282225;28;20494;-58
2021/06/05 18:38:27;;;;;;;5.93;3.15;;;;;;;;;;10281799;28;20099;-53
2021/06/05 18:43:25;;;;;;;4.85;2.70;;;;;;;;;;10281337;28;20045;-57
2021/06/05 18:48:24;;;;;;;6.15;2.72;;;;;;;;;;10281023;28;20412;-56
2021/06/05 18:53:25;;;;;;;5.95;3.08;;;;;;;;;;10280817;28;20072;-56
2021/06/05 18:58:25;;;;;;;6.65;2.65;;;;;;;;;;10280675;28;20072;-54
2021/06/05 19:03:22;;;;;;;4.88;2.97;;;;;;;;;;10280536;28;20064;-54
2021/06/05 19:08:23;;;;;;;10.65;2.88;;;;;;;;;;10279606;28;20041;-55
2021/06/05 19:13:22;;;;;;;6.60;3.20;;;;;;;;;;10280192;28;20084;-56
2021/06/05 19:18:22;;;;;;;9.27;3.40;;;;;;;;;;10280172;28;20466;-56
2021/06/05 19:23:20;;;;;;;7.53;2.83;;;;;;;;;;10279052;28;20421;-54
2021/06/05 19:28:19;;;;;;;10.57;3.17;;;;;;;;;;10279533;28;20057;-55
2021/06/05 19:33:18;;;;;;;8.65;3.58;;;;;;;;;;10279562;28;20044;-57
2021/06/05 19:38:17;;;;;;;4.75;2.50;;;;;;;;;;10279211;28;20080;-57
2021/06/05 19:43:16;;;;;;;7.05;2.97;;;;;;;;;;10278051;28;20502;-54
2021/06/05 19:48:13;;;;;;;4.72;2.85;;;;;;;;;;10278796;28;20045;-57
2021/06/05 19:53:12;;;;;;;8.73;2.97;;;;;;;;;;10278641;28;20069;-55
2021/06/05 19:58:14;;;;;;;5.88;2.67;;;;;;;;;;10277485;28;20076;-54
2021/06/05 20:03:12;;;;;;;7.05;3.00;;;;;;;;;;10278370;28;20391;-53
2021/06/05 20:08:10;;;;;;;3.28;2.83;;;;;;;;;;10278021;28;20072;-54
2021/06/05 20:13:09;;;;;;;6.18;3.33;;;;;;;;;;10277870;28;20044;-55
2021/06/05 20:18:09;;;;;;;9.38;3.03;;;;;;;;;;10277936;28;20470;-55
2021/06/05 20:23:08;;;;;;;6.32;2.90;;;;;;;;;;10276902;28;20045;-57
2021/06/05 20:28:06;;;;;;;4.75;2.65;;;;;;;;;;10277123;28;20494;-57
2021/06/05 20:33:05;;;;;;;6.43;3.00;;;;;;;;;;10277072;28;20049;-57
2021/06/05 20:38:04;;;;;;;5.22;2.90;;;;;;;;;;10276829;28;20085;-57
2021/06/05 20:43:04;;;;;;;4.63;2.85;;;;;;;;;;10276573;28;20207;-54
2021/06/05 20:48:02;;;;;;;5.25;3.15;;;;;;;;;;10276424;28;20053;-55
2021/06/05 20:53:00;;;;;;;6.45;3.17;;;;;;;;;;10276141;28;20056;-55
2021/06/05 20:57:59;;;;;;;6.60;3.22;;;;;;;;;;10276105;28;20052;-56
2021/06/05 21:02:57;;;;;;;7.93;3.28;;;;;;;;;;10275877;28;20040;-56
2021/06/05 21:07:55;;;;;;;4.45;2.63;;;;;;;;;;10275656;28;20476;-56
2021/06/05 21:12:54;;;;;;;7.93;3.35;;;;;;;;;;10275135;28;20072;-56
2021/06/05 21:17:53;;;;;;;3.35;2.97;;;;;;;;;;10275703;28;20388;-56
2021/06/05 21:22:51;;;;;;;4.15;2.88;;;;;;;;;;10275115;28;20083;-55
2021/06/05 21:27:50;;;;;;;3.70;3.05;;;;;;;;;;10275108;28;20056;-57
2021/06/05 21:32:47;;;;;;;3.17;2.45;;;;;;;;;;10274082;28;20044;-56
2021/06/05 21:37:47;;;;;;;3.60;2.97;;;;;;;;;;10274692;28;20072;-58
2021/06/05 21:42:47;;;;;;;5.25;2.92;;;;;;;;;;10274365;28;20076;-55
2021/06/05 21:47:47;;;;;;;4.70;3.50;;;;;;;;;;10274488;28;20052;-57
2021/06/05 21:52:46;;;;;;;3.58;2.83;;;;;;;;;;10273924;28;20052;-55
2021/06/05 21:57:44;;;;;;;5.18;3.00;;;;;;;;;;10274445;28;20076;-57
2021/06/05 22:02:42;;;;;;;7.15;2.90;;;;;;;;;;10274246;28;20084;-56
2021/06/05 22:07:40;;;;;;;9.10;2.80;;;;;;;;;;10274080;28;20072;-55
2021/06/05 22:12:39;;;;;;;8.40;2.55;;;;;;;;;;10273356;28;20537;-56
2021/06/05 22:17:37;;;;;;;7.65;2.53;;;;;;;;;;10274249;28;20076;-55
2021/06/05 22:22:36;;;;;;;2.83;2.55;;;;;;;;;;10274301;28;20310;-55
2021/06/05 22:27:35;;;;;;;3.40;2.90;;;;;;;;;;10273030;28;20076;-54
2021/06/05 22:32:34;;;;;;;7.85;2.90;;;;;;;;;;10273807;28;20513;-56
2021/06/05 22:37:32;;;;;;;7.93;2.63;;;;;;;;;;10273661;28;20073;-57
2021/06/05 22:42:30;;;;;;;3.92;2.90;;;;;;;;;;10273248;28;20072;-57
2021/06/05 22:47:28;;;;;;;5.28;2.85;;;;;;;;;;10280789;28;20079;-56
2021/06/05 22:52:31;;;;;;;7.00;3.03;;;;;;;;;;10280888;28;20064;-57
2021/06/05 22:57:29;;;;;;;6.30;3.10;;;;;;;;;;10280678;28;20068;-56
2021/06/05 23:02:27;;;;;;;4.80;2.47;;;;;;;;;;10280333;28;20072;-55
2021/06/05 23:07:24;;;;;;;4.78;2.83;;;;;;;;;;10307426;28;20461;-53
2021/06/05 23:12:24;;;;;;;5.38;2.25;;;;;;;;;;10321638;28;20226;-57
2021/06/05 23:17:21;;;;;;;6.32;3.10;;;;;;;;;;10317377;28;20076;-54
2021/06/05 23:22:19;;;;;;;5.93;2.95;;;;;;;;;;10316802;28;20076;-58
2021/06/05 23:27:17;;;;;;;3.60;2.60;;;;;;;;;;10320067;28;20072;-57
2021/06/05 23:32:16;;;;;;;3.13;2.83;;;;;;;;;;10319841;28;20075;-55
2021/06/05 23:37:14;;;;;;;8.77;3.05;;;;;;;;;;10319676;28;20060;-55
2021/06/05 23:42:12;;;;;;;3.53;2.63;;;;;;;;;;10319339;28;20501;-56
2021/06/05 23:47:10;;;;;;;7.97;3.20;;;;;;;;;;10319368;28;20044;-56
2021/06/05 23:52:09;;;;;;;6.32;2.78;;;;;;;;;;10319206;28;20075;-54
2021/06/05 23:57:07;;;;;;;6.45;2.67;;;;;;;;;;10317213;28;20100;-55
